• Join FlightAware (Why Join?)
  • Login
  • US Flag 
03:05PM EDT


 

Airport Tracker/Info


-or-


 

Live Flight TrackerFlight Track Log ✈ EGF3382 ✈ 22-Jun-2012 ✈ KDFW - KCID

Flight Track Log - Related Links

Times and Time Zones

All times are in EDT time to prevent confusion due to time zone crossing. See the EGF3382 flight status page for this flight to view local times or setup timezone preferences in your user account.

Time Position Orientation Groundspeed Altitude Reporting Facility
EDT Latitude Longitude Course Direction KTS MPH feet Rate Location/Type
10:33PM 33.3686 -96.8426 23° Northeast  Level FlightAware Approximate
10:34PM 33.4622 -96.7956 22° Northeast  Level FlightAware Approximate
10:35PM 33.5575 -96.7497 15° North  Level FlightAware Approximate
10:36PM 33.6558 -96.7184 17° North  Level FlightAware Approximate
10:37PM 33.7529 -96.6821 22° Northeast  Level FlightAware Approximate
10:38PM 33.8480 -96.6353 18° North  Level FlightAware Approximate
10:39PM 33.9452 -96.5977 22° Northeast  Level FlightAware Approximate
10:40PM 34.0401 -96.5505 13° North  Level FlightAware Approximate
10:41PM 34.1394 -96.5228 19° North  Level FlightAware Approximate
10:42PM 34.2363 -96.4819 20° North  Level FlightAware Approximate
10:43PM 34.3325 -96.4385 23° Northeast  Level FlightAware Approximate
10:44PM 34.4270 -96.3900 17° North  Level FlightAware Approximate
10:45PM 34.5252 -96.3541 21° North  Level FlightAware Approximate
10:46PM 34.6210 -96.3092 20° North  Level FlightAware Approximate
10:47PM 34.7174 -96.2664 24° Northeast  Level FlightAware Approximate
10:48PM 34.8111 -96.2152 10° North  Level FlightAware Approximate
10:49PM 34.9103 -96.1949 22° Northeast  Level FlightAware Approximate
10:50PM 35.0054 -96.1476 25° Northeast  Level FlightAware Approximate
10:51PM 35.0987 -96.0951 25° Northeast  Level FlightAware Approximate
10:52PM 35.1919 -96.0425 25° Northeast  Level FlightAware Approximate
10:53PM 35.2851 -95.9897 25° Northeast  Level FlightAware Approximate
10:54PM 35.3782 -95.9365 25° Northeast  Level FlightAware Approximate
10:55PM 35.4712 -95.8831 25° Northeast  Level FlightAware Approximate
10:56PM 35.5642 -95.8296 25° Northeast  Level FlightAware Approximate
10:57PM 35.6572 -95.7759 25° Northeast  Level FlightAware Approximate
10:58PM 35.7499 -95.7217 25° Northeast  Level FlightAware Approximate
10:59PM 35.8427 -95.6674 25° Northeast  Level FlightAware Approximate
11:00PM 35.9354 -95.6129 26° Northeast  Level FlightAware Approximate
11:01PM 36.0280 -95.5581 26° Northeast  Level FlightAware Approximate
11:02PM 36.1206 -95.5031 26° Northeast  Level FlightAware Approximate
11:03PM 36.2132 -95.4479 26° Northeast  Level FlightAware Approximate
11:04PM 36.3057 -95.3926 26° Northeast  Level FlightAware Approximate
11:05PM 36.3982 -95.3372 26° Northeast  Level FlightAware Approximate
11:06PM 36.4906 -95.2817 26° Northeast  Level FlightAware Approximate
11:07PM 36.5831 -95.2260 26° Northeast  Level FlightAware Approximate
11:08PM 36.6755 -95.1702 26° Northeast  Level FlightAware Approximate
11:09PM 36.7679 -95.1143 26° Northeast  Level FlightAware Approximate
11:10PM 36.8603 -95.0583 26° Northeast  Level FlightAware Approximate
11:11PM 36.9526 -95.0021 26° Northeast  Level FlightAware Approximate
11:12PM 37.0449 -94.9457 26° Northeast  Level FlightAware Approximate
11:13PM 37.1372 -94.8892 North  Level FlightAware Approximate
11:14PM 37.2370 -94.8870 27° Northeast  Level FlightAware Approximate
11:15PM 37.3285 -94.8285 27° Northeast  Level FlightAware Approximate
11:16PM 37.4200 -94.7699 27° Northeast  Level FlightAware Approximate
11:17PM 37.5115 -94.7111 27° Northeast  Level FlightAware Approximate
11:18PM 37.6029 -94.6522 27° Northeast  Level FlightAware Approximate
11:19PM 37.6944 -94.5931 27° Northeast  Level FlightAware Approximate
11:20PM 37.7858 -94.5339 27° Northeast  Level FlightAware Approximate
11:21PM 37.8771 -94.4745 27° Northeast  Level FlightAware Approximate
11:22PM 37.9685 -94.4150 27° Northeast  Level FlightAware Approximate
11:23PM 38.0598 -94.3554 28° Northeast  Level FlightAware Approximate
11:24PM 38.1505 -94.2943 27° Northeast  Level FlightAware Approximate
11:25PM 38.2419 -94.2346 27° Northeast  Level FlightAware Approximate
11:26PM 38.3331 -94.1747 28° Northeast  Level FlightAware Approximate
11:27PM 38.4234 -94.1123 27° Northeast  Level FlightAware Approximate
11:28PM 38.5147 -94.0520 27° Northeast  Level FlightAware Approximate
11:29PM 38.6059 -93.9916 27° Northeast  Level FlightAware Approximate
11:30PM 38.6970 -93.9311 27° Northeast  Level FlightAware Approximate
11:31PM 38.7882 -93.8704 27° Northeast  Level FlightAware Approximate
11:32PM 38.8793 -93.8095 28° Northeast  Level FlightAware Approximate
11:33PM 38.9703 -93.7486 28° Northeast  Level FlightAware Approximate
11:34PM 39.0614 -93.6874 28° Northeast  Level FlightAware Approximate
11:35PM 39.1524 -93.6261 28° Northeast  Level FlightAware Approximate
11:36PM 39.2434 -93.5646 25° Northeast  Level FlightAware Approximate
11:37PM 39.3364 -93.5086 28° Northeast  Level FlightAware Approximate
11:38PM 39.4272 -93.4466 28° Northeast  Level FlightAware Approximate
11:39PM 39.5180 -93.3844 28° Northeast  Level FlightAware Approximate
11:40PM 39.6088 -93.3221 28° Northeast  Level FlightAware Approximate
11:41PM 39.6992 -93.2590 28° Northeast  Level FlightAware Approximate
11:42PM 39.7897 -93.1958 28° Northeast  Level FlightAware Approximate
11:43PM 39.8804 -93.1330 27° Northeast  Level FlightAware Approximate
11:44PM 39.9715 -93.0715 28° Northeast  Level FlightAware Approximate
11:45PM 40.0621 -93.0083 31° Northeast  Level FlightAware Approximate
11:46PM 40.1503 -92.9398 26° Northeast  Level FlightAware Approximate
11:47PM 40.2426 -92.8812 28° Northeast  Level FlightAware Approximate
11:48PM 40.3331 -92.8176 29° Northeast  Level FlightAware Approximate
11:49PM 40.4226 -92.7516 27° Northeast  Level FlightAware Approximate
11:50PM 40.5142 -92.6905 27° Northeast  Level FlightAware Approximate
11:51PM 40.6048 -92.6286 32° Northeast  Level FlightAware Approximate
11:52PM 40.6914 -92.5565 29° Northeast  Level FlightAware Approximate
11:53PM 40.7810 -92.4902 28° Northeast  Level FlightAware Approximate
11:54PM 40.8715 -92.4261 28° Northeast  Level FlightAware Approximate
11:55PM 40.9621 -92.3619 28° Northeast  Level FlightAware Approximate
11:56PM 41.0525 -92.2975 28° Northeast  Level FlightAware Approximate
11:57PM 41.1430 -92.2330 26° Northeast  Level FlightAware Approximate
11:58PM 41.2350 -92.1729 29° Northeast  Level FlightAware Approximate
11:59PM 41.3251 -92.1073 28° Northeast  Level FlightAware Approximate
12:00AM 41.4155 -92.0442 29° Northeast  Level FlightAware Approximate
12:01AM 41.5053 -91.9778 27° Northeast  Level FlightAware Approximate
12:02AM 41.5966 -91.9151 29° Northeast  Level FlightAware Approximate
12:03AM 41.6863 -91.8480 31° Northeast  Level FlightAware Approximate
12:04AM 41.7741 -91.7777 28° Northeast  Level FlightAware Approximate
12:05AM 41.8646 -91.7125 North  Level FlightAware Approximate
12:06AM 41.9670 -91.7037 178° South  Level Estimated
12:07AM 41.8833 -91.7000 178° South  Level FlightAware Approximate